sensor_id;sensor_type;location;lat;lon;timestamp;P1;durP1;ratioP1;P2;durP2;ratioP2
74483;SDS011;62942;52.462;10.846;2023-02-10T00:00:44;22.7;;;41;;
74483;SDS011;62942;52.462;10.846;2023-02-10T00:01:44;22.3;;;39.6;;
74483;SDS011;62942;52.462;10.846;2023-02-10T00:02:54;23.6;;;42.2;;
74483;SDS011;62942;52.462;10.846;2023-02-10T00:04:04;22.8;;;39.4;;
74483;SDS011;62942;52.462;10.846;2023-02-10T00:05:14;23.5;;;41.2;;
74483;SDS011;62942;52.462;10.846;2023-02-10T00:06:24;23.6;;;42.4;;
74483;SDS011;62942;52.462;10.846;2023-02-10T00:07:34;23.5;;;42.2;;
74483;SDS011;62942;52.462;10.846;2023-02-10T00:08:34;23.1;;;39.7;;
74483;SDS011;62942;52.462;10.846;2023-02-10T00:09:44;23.9;;;44;;
74483;SDS011;62942;52.462;10.846;2023-02-10T00:10:44;23.3;;;42.9;;
74483;SDS011;62942;52.462;10.846;2023-02-10T00:11:54;23.1;;;42.3;;
74483;SDS011;62942;52.462;10.846;2023-02-10T00:13:04;22.7;;;41.4;;
74483;SDS011;62942;52.462;10.846;2023-02-10T00:14:04;23.2;;;39.8;;
74483;SDS011;62942;52.462;10.846;2023-02-10T00:15:14;23.2;;;42.4;;
74483;SDS011;62942;52.462;10.846;2023-02-10T00:16:24;23.8;;;43.1;;
74483;SDS011;62942;52.462;10.846;2023-02-10T00:17:34;24;;;44.3;;
74483;SDS011;62942;52.462;10.846;2023-02-10T00:18:44;23.2;;;42.3;;
74483;SDS011;62942;52.462;10.846;2023-02-10T00:19:44;23.9;;;41.5;;
74483;SDS011;62942;52.462;10.846;2023-02-10T00:20:54;22.8;;;39.9;;
74483;SDS011;62942;52.462;10.846;2023-02-10T00:21:54;23.3;;;40.4;;
74483;SDS011;62942;52.462;10.846;2023-02-10T00:23:04;23.9;;;44.9;;
74483;SDS011;62942;52.462;10.846;2023-02-10T00:24:14;23.5;;;42.5;;
74483;SDS011;62942;52.462;10.846;2023-02-10T00:25:24;23.1;;;40.6;;
74483;SDS011;62942;52.462;10.846;2023-02-10T00:26:34;23.2;;;40.5;;
74483;SDS011;62942;52.462;10.846;2023-02-10T00:27:44;23.1;;;41.1;;
74483;SDS011;62942;52.462;10.846;2023-02-10T00:28:54;22.8;;;40.3;;
74483;SDS011;62942;52.462;10.846;2023-02-10T00:30:04;23.5;;;40.7;;
74483;SDS011;62942;52.462;10.846;2023-02-10T00:31:05;23.2;;;41.1;;
74483;SDS011;62942;52.462;10.846;2023-02-10T00:32:14;23.3;;;40.4;;
74483;SDS011;62942;52.462;10.846;2023-02-10T00:33:24;23.6;;;42.1;;
74483;SDS011;62942;52.462;10.846;2023-02-10T00:34:24;23.5;;;41.1;;
74483;SDS011;62942;52.462;10.846;2023-02-10T00:35:36;23.8;;;42.1;;
74483;SDS011;62942;52.462;10.846;2023-02-10T00:36:44;23.5;;;42.7;;
74483;SDS011;62942;52.462;10.846;2023-02-10T00:37:54;24.6;;;43.5;;
74483;SDS011;62942;52.462;10.846;2023-02-10T00:39:04;24.6;;;43.8;;
74483;SDS011;62942;52.462;10.846;2023-02-10T00:40:15;24;;;44;;
74483;SDS011;62942;52.462;10.846;2023-02-10T00:41:24;24.5;;;42.9;;
74483;SDS011;62942;52.462;10.846;2023-02-10T00:42:34;24.8;;;41.5;;
74483;SDS011;62942;52.462;10.846;2023-02-10T00:43:44;24;;;43.4;;
74483;SDS011;62942;52.462;10.846;2023-02-10T00:44:54;24.3;;;42.5;;
74483;SDS011;62942;52.462;10.846;2023-02-10T00:46:04;24.4;;;42.8;;
74483;SDS011;62942;52.462;10.846;2023-02-10T00:47:14;24.6;;;43.5;;
74483;SDS011;62942;52.462;10.846;2023-02-10T00:48:24;24.5;;;43.7;;
74483;SDS011;62942;52.462;10.846;2023-02-10T00:49:24;25;;;44.9;;
74483;SDS011;62942;52.462;10.846;2023-02-10T00:50:34;25.1;;;46.5;;
74483;SDS011;62942;52.462;10.846;2023-02-10T00:51:44;25;;;43.9;;
74483;SDS011;62942;52.462;10.846;2023-02-10T00:52:54;24.8;;;44.1;;
74483;SDS011;62942;52.462;10.846;2023-02-10T00:54:04;25.3;;;44.4;;
74483;SDS011;62942;52.462;10.846;2023-02-10T00:55:14;25.7;;;43.6;;
74483;SDS011;62942;52.462;10.846;2023-02-10T00:56:24;25.3;;;45.4;;
74483;SDS011;62942;52.462;10.846;2023-02-10T00:57:34;26.4;;;47;;
74483;SDS011;62942;52.462;10.846;2023-02-10T00:58:34;25.7;;;46.2;;
74483;SDS011;62942;52.462;10.846;2023-02-10T00:59:44;26.5;;;47.5;;
74483;SDS011;62942;52.462;10.846;2023-02-10T01:00:44;26.2;;;47.7;;
74483;SDS011;62942;52.462;10.846;2023-02-10T01:01:54;26.4;;;46.7;;
74483;SDS011;62942;52.462;10.846;2023-02-10T01:03:04;26.5;;;48.1;;
74483;SDS011;62942;52.462;10.846;2023-02-10T01:04:14;27.3;;;53.4;;
74483;SDS011;62942;52.462;10.846;2023-02-10T01:05:24;27.6;;;50.7;;
74483;SDS011;62942;52.462;10.846;2023-02-10T01:06:24;27.7;;;50.2;;
74483;SDS011;62942;52.462;10.846;2023-02-10T01:07:34;27.5;;;47.6;;
74483;SDS011;62942;52.462;10.846;2023-02-10T01:08:44;28.1;;;51.2;;
74483;SDS011;62942;52.462;10.846;2023-02-10T01:09:44;28.8;;;49.6;;
74483;SDS011;62942;52.462;10.846;2023-02-10T01:10:58;28.6;;;52.5;;
74483;SDS011;62942;52.462;10.846;2023-02-10T01:12:04;28.2;;;51.3;;
74483;SDS011;62942;52.462;10.846;2023-02-10T01:13:14;28.3;;;51.9;;
74483;SDS011;62942;52.462;10.846;2023-02-10T01:14:24;28.6;;;51.9;;
74483;SDS011;62942;52.462;10.846;2023-02-10T01:15:34;28.6;;;51.4;;
74483;SDS011;62942;52.462;10.846;2023-02-10T01:16:44;28.3;;;50.6;;
74483;SDS011;62942;52.462;10.846;2023-02-10T01:17:54;30;;;52.2;;
74483;SDS011;62942;52.462;10.846;2023-02-10T01:18:54;29.3;;;51.6;;
74483;SDS011;62942;52.462;10.846;2023-02-10T01:20:04;29.3;;;51;;
74483;SDS011;62942;52.462;10.846;2023-02-10T01:21:15;30;;;54.8;;
74483;SDS011;62942;52.462;10.846;2023-02-10T01:22:24;30;;;53.5;;
74483;SDS011;62942;52.462;10.846;2023-02-10T01:23:24;29.3;;;52;;
74483;SDS011;62942;52.462;10.846;2023-02-10T01:24:34;29.1;;;53.3;;
74483;SDS011;62942;52.462;10.846;2023-02-10T01:25:44;29.2;;;51.8;;
74483;SDS011;62942;52.462;10.846;2023-02-10T01:26:44;29.9;;;52.4;;
74483;SDS011;62942;52.462;10.846;2023-02-10T01:27:54;30.2;;;53.6;;
74483;SDS011;62942;52.462;10.846;2023-02-10T01:29:04;29.6;;;52.8;;
74483;SDS011;62942;52.462;10.846;2023-02-10T01:30:14;30.1;;;52.5;;
74483;SDS011;62942;52.462;10.846;2023-02-10T01:31:24;30.1;;;55.2;;
74483;SDS011;62942;52.462;10.846;2023-02-10T01:32:34;29.6;;;52.3;;
74483;SDS011;62942;52.462;10.846;2023-02-10T01:33:44;31;;;55.4;;
74483;SDS011;62942;52.462;10.846;2023-02-10T01:34:44;30;;;55.8;;
74483;SDS011;62942;52.462;10.846;2023-02-10T01:35:54;30.5;;;56.6;;
74483;SDS011;62942;52.462;10.846;2023-02-10T01:37:04;30.1;;;54.5;;
74483;SDS011;62942;52.462;10.846;2023-02-10T01:38:14;30.4;;;53.9;;
74483;SDS011;62942;52.462;10.846;2023-02-10T01:39:15;31.1;;;55;;
74483;SDS011;62942;52.462;10.846;2023-02-10T01:40:24;31.1;;;56.1;;
74483;SDS011;62942;52.462;10.846;2023-02-10T01:41:34;30.1;;;52;;
74483;SDS011;62942;52.462;10.846;2023-02-10T01:42:44;30.2;;;52.1;;
74483;SDS011;62942;52.462;10.846;2023-02-10T01:43:56;30.6;;;53;;
74483;SDS011;62942;52.462;10.846;2023-02-10T01:45:27;29.3;;;53;;
74483;SDS011;62942;52.462;10.846;2023-02-10T01:46:04;29.4;;;52.3;;
74483;SDS011;62942;52.462;10.846;2023-02-10T01:47:14;31;;;54.1;;
74483;SDS011;62942;52.462;10.846;2023-02-10T01:48:14;30.6;;;56.7;;
74483;SDS011;62942;52.462;10.846;2023-02-10T01:49:25;29.1;;;50.3;;
74483;SDS011;62942;52.462;10.846;2023-02-10T01:50:25;30.4;;;53;;
74483;SDS011;62942;52.462;10.846;2023-02-10T01:51:36;30;;;52.7;;
74483;SDS011;62942;52.462;10.846;2023-02-10T01:52:44;29.7;;;50.9;;
74483;SDS011;62942;52.462;10.846;2023-02-10T01:53:44;30.1;;;51.5;;
74483;SDS011;62942;52.462;10.846;2023-02-10T01:54:54;30.3;;;54.2;;
74483;SDS011;62942;52.462;10.846;2023-02-10T01:56:04;30.2;;;52.2;;
74483;SDS011;62942;52.462;10.846;2023-02-10T01:57:14;29.5;;;52.2;;
74483;SDS011;62942;52.462;10.846;2023-02-10T01:58:14;30.5;;;53.1;;
74483;SDS011;62942;52.462;10.846;2023-02-10T01:59:24;29.7;;;52.3;;
74483;SDS011;62942;52.462;10.846;2023-02-10T02:00:24;29;;;51.8;;
74483;SDS011;62942;52.462;10.846;2023-02-10T02:01:34;28.2;;;48.5;;
74483;SDS011;62942;52.462;10.846;2023-02-10T02:02:34;28.1;;;48.2;;
74483;SDS011;62942;52.462;10.846;2023-02-10T02:03:44;29.1;;;50.2;;
74483;SDS011;62942;52.462;10.846;2023-02-10T02:04:54;28.4;;;48.6;;
74483;SDS011;62942;52.462;10.846;2023-02-10T02:06:04;28.8;;;49.1;;
74483;SDS011;62942;52.462;10.846;2023-02-10T02:07:14;27.9;;;47.6;;
74483;SDS011;62942;52.462;10.846;2023-02-10T02:08:25;28.6;;;49.3;;
74483;SDS011;62942;52.462;10.846;2023-02-10T02:09:34;29.2;;;49.7;;
74483;SDS011;62942;52.462;10.846;2023-02-10T02:10:36;28.5;;;48;;
74483;SDS011;62942;52.462;10.846;2023-02-10T02:11:45;28.4;;;50.8;;
74483;SDS011;62942;52.462;10.846;2023-02-10T02:12:45;27.8;;;48.3;;
74483;SDS011;62942;52.462;10.846;2023-02-10T02:13:58;27.9;;;47.5;;
74483;SDS011;62942;52.462;10.846;2023-02-10T02:15:06;27.1;;;48.2;;
74483;SDS011;62942;52.462;10.846;2023-02-10T02:16:16;27.4;;;47;;
74483;SDS011;62942;52.462;10.846;2023-02-10T02:17:15;27.6;;;48;;
74483;SDS011;62942;52.462;10.846;2023-02-10T02:18:25;28.5;;;49.1;;
74483;SDS011;62942;52.462;10.846;2023-02-10T02:19:44;27.9;;;47.6;;
74483;SDS011;62942;52.462;10.846;2023-02-10T02:21:07;27;;;47.9;;
74483;SDS011;62942;52.462;10.846;2023-02-10T02:21:47;27.2;;;44.9;;
74483;SDS011;62942;52.462;10.846;2023-02-10T02:22:59;27.6;;;47.2;;
74483;SDS011;62942;52.462;10.846;2023-02-10T02:24:15;27.3;;;46.7;;
74483;SDS011;62942;52.462;10.846;2023-02-10T02:25:09;26.8;;;46.8;;
74483;SDS011;62942;52.462;10.846;2023-02-10T02:26:19;26.7;;;45.9;;
74483;SDS011;62942;52.462;10.846;2023-02-10T02:27:28;26.4;;;48;;
74483;SDS011;62942;52.462;10.846;2023-02-10T02:28:36;27.5;;;49.8;;
74483;SDS011;62942;52.462;10.846;2023-02-10T02:29:40;28.2;;;49.8;;
74483;SDS011;62942;52.462;10.846;2023-02-10T02:30:40;27.1;;;48.1;;
74483;SDS011;62942;52.462;10.846;2023-02-10T02:31:45;27.6;;;46.7;;
74483;SDS011;62942;52.462;10.846;2023-02-10T02:32:54;27.7;;;48.4;;
74483;SDS011;62942;52.462;10.846;2023-02-10T02:34:05;27.4;;;48.2;;
74483;SDS011;62942;52.462;10.846;2023-02-10T02:35:15;28.1;;;48.9;;
74483;SDS011;62942;52.462;10.846;2023-02-10T02:36:16;29.1;;;50.7;;
74483;SDS011;62942;52.462;10.846;2023-02-10T02:37:25;28.5;;;49.7;;
74483;SDS011;62942;52.462;10.846;2023-02-10T02:38:36;27.2;;;46.8;;
74483;SDS011;62942;52.462;10.846;2023-02-10T02:39:34;28.2;;;48.2;;
74483;SDS011;62942;52.462;10.846;2023-02-10T02:40:44;28;;;48.9;;
74483;SDS011;62942;52.462;10.846;2023-02-10T02:41:59;27.8;;;48.2;;
74483;SDS011;62942;52.462;10.846;2023-02-10T02:43:04;28.1;;;49.2;;
74483;SDS011;62942;52.462;10.846;2023-02-10T02:44:14;27.6;;;50;;
74483;SDS011;62942;52.462;10.846;2023-02-10T02:45:15;27.6;;;47.6;;
74483;SDS011;62942;52.462;10.846;2023-02-10T02:46:26;27.9;;;48.5;;
74483;SDS011;62942;52.462;10.846;2023-02-10T02:47:28;27.1;;;46.7;;
74483;SDS011;62942;52.462;10.846;2023-02-10T02:48:38;27.4;;;46.3;;
74483;SDS011;62942;52.462;10.846;2023-02-10T02:49:45;28.9;;;48.7;;
74483;SDS011;62942;52.462;10.846;2023-02-10T02:50:55;28.2;;;47.8;;
74483;SDS011;62942;52.462;10.846;2023-02-10T02:52:05;28.6;;;50;;
74483;SDS011;62942;52.462;10.846;2023-02-10T02:53:17;28.3;;;48.5;;
74483;SDS011;62942;52.462;10.846;2023-02-10T02:54:16;29;;;50;;
74483;SDS011;62942;52.462;10.846;2023-02-10T02:55:24;29;;;53.8;;
74483;SDS011;62942;52.462;10.846;2023-02-10T02:56:24;29;;;51.4;;
74483;SDS011;62942;52.462;10.846;2023-02-10T02:57:35;29.4;;;50.5;;
74483;SDS011;62942;52.462;10.846;2023-02-10T02:58:45;30;;;53.7;;
74483;SDS011;62942;52.462;10.846;2023-02-10T02:59:45;30;;;51.1;;
74483;SDS011;62942;52.462;10.846;2023-02-10T03:00:54;30.6;;;52.6;;
74483;SDS011;62942;52.462;10.846;2023-02-10T03:02:04;29.7;;;52.4;;
74483;SDS011;62942;52.462;10.846;2023-02-10T03:03:04;30.4;;;52.3;;
74483;SDS011;62942;52.462;10.846;2023-02-10T03:04:14;30.6;;;49.9;;
74483;SDS011;62942;52.462;10.846;2023-02-10T03:05:16;30;;;50.8;;
74483;SDS011;62942;52.462;10.846;2023-02-10T03:06:14;31.1;;;54.9;;
74483;SDS011;62942;52.462;10.846;2023-02-10T03:07:24;31.4;;;51.9;;
74483;SDS011;62942;52.462;10.846;2023-02-10T03:08:34;31;;;55.7;;
74483;SDS011;62942;52.462;10.846;2023-02-10T03:09:34;31.1;;;54.2;;
74483;SDS011;62942;52.462;10.846;2023-02-10T03:10:34;31.1;;;53.4;;
74483;SDS011;62942;52.462;10.846;2023-02-10T03:11:44;30.8;;;55.1;;
74483;SDS011;62942;52.462;10.846;2023-02-10T03:12:44;29.6;;;49.9;;
74483;SDS011;62942;52.462;10.846;2023-02-10T03:13:54;30.3;;;50.6;;
74483;SDS011;62942;52.462;10.846;2023-02-10T03:14:54;30.6;;;51.7;;
74483;SDS011;62942;52.462;10.846;2023-02-10T03:16:04;30;;;50.3;;
74483;SDS011;62942;52.462;10.846;2023-02-10T03:17:14;30.7;;;52;;
74483;SDS011;62942;52.462;10.846;2023-02-10T03:18:24;30.2;;;52.5;;
74483;SDS011;62942;52.462;10.846;2023-02-10T03:19:34;30.3;;;53.6;;
74483;SDS011;62942;52.462;10.846;2023-02-10T03:20:44;29.9;;;52;;
74483;SDS011;62942;52.462;10.846;2023-02-10T03:21:54;30.1;;;50.4;;
74483;SDS011;62942;52.462;10.846;2023-02-10T03:23:04;30.3;;;51.9;;
74483;SDS011;62942;52.462;10.846;2023-02-10T03:24:14;30;;;51.1;;
74483;SDS011;62942;52.462;10.846;2023-02-10T03:25:24;30.2;;;50;;
74483;SDS011;62942;52.462;10.846;2023-02-10T03:26:34;30.7;;;54.8;;
74483;SDS011;62942;52.462;10.846;2023-02-10T03:27:44;29.5;;;50;;
74483;SDS011;62942;52.462;10.846;2023-02-10T03:28:44;30.1;;;52.8;;
74483;SDS011;62942;52.462;10.846;2023-02-10T03:29:44;30.1;;;53;;
74483;SDS011;62942;52.462;10.846;2023-02-10T03:30:44;29.8;;;51.5;;
74483;SDS011;62942;52.462;10.846;2023-02-10T03:31:53;30.6;;;53.4;;
74483;SDS011;62942;52.462;10.846;2023-02-10T03:32:54;30.5;;;51.4;;
74483;SDS011;62942;52.462;10.846;2023-02-10T03:33:54;30.5;;;53.1;;
74483;SDS011;62942;52.462;10.846;2023-02-10T03:35:04;30.9;;;54.1;;
74483;SDS011;62942;52.462;10.846;2023-02-10T03:36:04;30.1;;;53.8;;
74483;SDS011;62942;52.462;10.846;2023-02-10T03:37:04;30.4;;;51.9;;
74483;SDS011;62942;52.462;10.846;2023-02-10T03:38:04;30.7;;;57;;
74483;SDS011;62942;52.462;10.846;2023-02-10T03:39:14;31.3;;;54.9;;
74483;SDS011;62942;52.462;10.846;2023-02-10T03:40:23;31.2;;;53.3;;
74483;SDS011;62942;52.462;10.846;2023-02-10T03:41:24;31.3;;;51.9;;
74483;SDS011;62942;52.462;10.846;2023-02-10T03:42:34;31.7;;;54.6;;
74483;SDS011;62942;52.462;10.846;2023-02-10T03:43:34;31.9;;;56;;
74483;SDS011;62942;52.462;10.846;2023-02-10T03:44:43;31.6;;;52.7;;
74483;SDS011;62942;52.462;10.846;2023-02-10T03:45:44;32.2;;;55.5;;
74483;SDS011;62942;52.462;10.846;2023-02-10T03:46:44;31.8;;;54.6;;
74483;SDS011;62942;52.462;10.846;2023-02-10T03:47:54;31;;;54.9;;
74483;SDS011;62942;52.462;10.846;2023-02-10T03:49:04;32.5;;;56.8;;
74483;SDS011;62942;52.462;10.846;2023-02-10T03:50:14;32.3;;;55;;
74483;SDS011;62942;52.462;10.846;2023-02-10T03:51:24;31.7;;;54.3;;
74483;SDS011;62942;52.462;10.846;2023-02-10T03:52:24;31.4;;;54.3;;
74483;SDS011;62942;52.462;10.846;2023-02-10T03:53:34;32.6;;;55.6;;
74483;SDS011;62942;52.462;10.846;2023-02-10T03:54:33;32.2;;;55.1;;
74483;SDS011;62942;52.462;10.846;2023-02-10T03:55:44;32.4;;;55.6;;
74483;SDS011;62942;52.462;10.846;2023-02-10T03:56:54;33;;;55.8;;
74483;SDS011;62942;52.462;10.846;2023-02-10T03:58:03;32.6;;;57.5;;
74483;SDS011;62942;52.462;10.846;2023-02-10T03:59:04;32.7;;;59.8;;
74483;SDS011;62942;52.462;10.846;2023-02-10T04:00:14;32.7;;;55.5;;
74483;SDS011;62942;52.462;10.846;2023-02-10T04:01:23;32.3;;;57.7;;
74483;SDS011;62942;52.462;10.846;2023-02-10T04:02:24;32.3;;;55.4;;
74483;SDS011;62942;52.462;10.846;2023-02-10T04:03:33;32;;;56.8;;
74483;SDS011;62942;52.462;10.846;2023-02-10T04:04:33;33.2;;;57.1;;
74483;SDS011;62942;52.462;10.846;2023-02-10T04:05:44;32.2;;;54.1;;
74483;SDS011;62942;52.462;10.846;2023-02-10T04:06:43;33.4;;;56.8;;
74483;SDS011;62942;52.462;10.846;2023-02-10T04:07:53;32.6;;;55.4;;
74483;SDS011;62942;52.462;10.846;2023-02-10T04:09:03;32.9;;;56.2;;
74483;SDS011;62942;52.462;10.846;2023-02-10T04:10:04;33;;;55.3;;
74483;SDS011;62942;52.462;10.846;2023-02-10T04:11:14;32.9;;;55;;
74483;SDS011;62942;52.462;10.846;2023-02-10T04:12:13;32.9;;;56.8;;
74483;SDS011;62942;52.462;10.846;2023-02-10T04:13:13;33.3;;;57.3;;
74483;SDS011;62942;52.462;10.846;2023-02-10T04:14:23;33.2;;;59.3;;
74483;SDS011;62942;52.462;10.846;2023-02-10T04:15:33;32.5;;;55.7;;
74483;SDS011;62942;52.462;10.846;2023-02-10T04:16:43;33.6;;;59.5;;
74483;SDS011;62942;52.462;10.846;2023-02-10T04:17:53;33.1;;;56.8;;
74483;SDS011;62942;52.462;10.846;2023-02-10T04:18:54;32.9;;;58.1;;
74483;SDS011;62942;52.462;10.846;2023-02-10T04:19:53;33.3;;;55.8;;
74483;SDS011;62942;52.462;10.846;2023-02-10T04:21:04;33.4;;;58.3;;
74483;SDS011;62942;52.462;10.846;2023-02-10T04:22:03;33.6;;;57.7;;
74483;SDS011;62942;52.462;10.846;2023-02-10T04:23:03;33.1;;;57.8;;
74483;SDS011;62942;52.462;10.846;2023-02-10T04:24:13;33.4;;;57.8;;
74483;SDS011;62942;52.462;10.846;2023-02-10T04:25:23;33.3;;;57.4;;
74483;SDS011;62942;52.462;10.846;2023-02-10T04:26:33;33.8;;;59.3;;
74483;SDS011;62942;52.462;10.846;2023-02-10T04:27:43;32.8;;;58.6;;
74483;SDS011;62942;52.462;10.846;2023-02-10T04:28:53;33.3;;;59.2;;
74483;SDS011;62942;52.462;10.846;2023-02-10T04:29:53;34;;;58.8;;
74483;SDS011;62942;52.462;10.846;2023-02-10T04:31:03;33.6;;;61.5;;
74483;SDS011;62942;52.462;10.846;2023-02-10T04:32:04;33.9;;;59.9;;
74483;SDS011;62942;52.462;10.846;2023-02-10T04:33:13;33.5;;;57.1;;
74483;SDS011;62942;52.462;10.846;2023-02-10T04:34:23;33.1;;;57.2;;
74483;SDS011;62942;52.462;10.846;2023-02-10T04:35:33;33.5;;;61.2;;
74483;SDS011;62942;52.462;10.846;2023-02-10T04:36:43;33.7;;;58.6;;
74483;SDS011;62942;52.462;10.846;2023-02-10T04:37:53;33.9;;;58;;
74483;SDS011;62942;52.462;10.846;2023-02-10T04:38:53;33.7;;;59;;
74483;SDS011;62942;52.462;10.846;2023-02-10T04:40:04;33.5;;;58.4;;
74483;SDS011;62942;52.462;10.846;2023-02-10T04:41:03;33.7;;;59.2;;
74483;SDS011;62942;52.462;10.846;2023-02-10T04:42:13;33.8;;;58.7;;
74483;SDS011;62942;52.462;10.846;2023-02-10T04:43:23;33.3;;;58.7;;
74483;SDS011;62942;52.462;10.846;2023-02-10T04:44:33;34;;;60;;
74483;SDS011;62942;52.462;10.846;2023-02-10T04:45:43;34;;;62.9;;
74483;SDS011;62942;52.462;10.846;2023-02-10T04:46:53;33.1;;;57.5;;
74483;SDS011;62942;52.462;10.846;2023-02-10T04:48:03;33.2;;;60.1;;
74483;SDS011;62942;52.462;10.846;2023-02-10T04:49:13;33.6;;;56.8;;
74483;SDS011;62942;52.462;10.846;2023-02-10T04:50:23;33.6;;;59.6;;
74483;SDS011;62942;52.462;10.846;2023-02-10T04:51:33;33.4;;;58.6;;
74483;SDS011;62942;52.462;10.846;2023-02-10T04:52:43;32.5;;;57.3;;
74483;SDS011;62942;52.462;10.846;2023-02-10T04:53:43;33;;;58.2;;
74483;SDS011;62942;52.462;10.846;2023-02-10T04:54:53;33;;;55.1;;
74483;SDS011;62942;52.462;10.846;2023-02-10T04:56:04;33.8;;;60.2;;
74483;SDS011;62942;52.462;10.846;2023-02-10T04:57:03;32.8;;;56.8;;
74483;SDS011;62942;52.462;10.846;2023-02-10T04:58:04;32.7;;;57.6;;
74483;SDS011;62942;52.462;10.846;2023-02-10T04:59:13;32.9;;;59;;
74483;SDS011;62942;52.462;10.846;2023-02-10T05:00:14;32.5;;;57.8;;
74483;SDS011;62942;52.462;10.846;2023-02-10T05:01:13;32.6;;;57.2;;
74483;SDS011;62942;52.462;10.846;2023-02-10T05:02:23;32.4;;;55.6;;
74483;SDS011;62942;52.462;10.846;2023-02-10T05:03:24;32.4;;;56.8;;
74483;SDS011;62942;52.462;10.846;2023-02-10T05:04:33;31.9;;;59.2;;
74483;SDS011;62942;52.462;10.846;2023-02-10T05:05:34;32.8;;;54.6;;
74483;SDS011;62942;52.462;10.846;2023-02-10T05:06:34;33;;;58.1;;
74483;SDS011;62942;52.462;10.846;2023-02-10T05:07:43;31.7;;;53.4;;
74483;SDS011;62942;52.462;10.846;2023-02-10T05:08:53;32.5;;;59.2;;
74483;SDS011;62942;52.462;10.846;2023-02-10T05:09:53;32.2;;;55.2;;
74483;SDS011;62942;52.462;10.846;2023-02-10T05:11:03;32.2;;;54.2;;
74483;SDS011;62942;52.462;10.846;2023-02-10T05:12:03;31.8;;;53.2;;
74483;SDS011;62942;52.462;10.846;2023-02-10T05:13:13;31.6;;;54.1;;
74483;SDS011;62942;52.462;10.846;2023-02-10T05:14:23;31.9;;;55.4;;
74483;SDS011;62942;52.462;10.846;2023-02-10T05:15:23;32;;;53.4;;
74483;SDS011;62942;52.462;10.846;2023-02-10T05:16:33;31.9;;;57.8;;
74483;SDS011;62942;52.462;10.846;2023-02-10T05:17:33;31.8;;;55.6;;
74483;SDS011;62942;52.462;10.846;2023-02-10T05:18:34;31.4;;;55.7;;
74483;SDS011;62942;52.462;10.846;2023-02-10T05:19:43;30.3;;;52.1;;
74483;SDS011;62942;52.462;10.846;2023-02-10T05:20:43;31.1;;;53.1;;
74483;SDS011;62942;52.462;10.846;2023-02-10T05:21:53;31.3;;;54.6;;
74483;SDS011;62942;52.462;10.846;2023-02-10T05:22:53;30.6;;;54;;
74483;SDS011;62942;52.462;10.846;2023-02-10T05:24:03;30.3;;;52;;
74483;SDS011;62942;52.462;10.846;2023-02-10T05:25:03;30.6;;;50;;
74483;SDS011;62942;52.462;10.846;2023-02-10T05:26:13;31.1;;;52.5;;
74483;SDS011;62942;52.462;10.846;2023-02-10T05:27:24;30.7;;;53.5;;
74483;SDS011;62942;52.462;10.846;2023-02-10T05:28:23;31;;;54.8;;
74483;SDS011;62942;52.462;10.846;2023-02-10T05:29:33;30.1;;;52.4;;
74483;SDS011;62942;52.462;10.846;2023-02-10T05:30:33;29.8;;;51.2;;
74483;SDS011;62942;52.462;10.846;2023-02-10T05:31:43;30.3;;;52.2;;
74483;SDS011;62942;52.462;10.846;2023-02-10T05:32:53;30.6;;;50.2;;
74483;SDS011;62942;52.462;10.846;2023-02-10T05:34:03;29.9;;;53.6;;
74483;SDS011;62942;52.462;10.846;2023-02-10T05:35:13;30.7;;;51.6;;
74483;SDS011;62942;52.462;10.846;2023-02-10T05:36:23;30.6;;;52.5;;
74483;SDS011;62942;52.462;10.846;2023-02-10T05:37:33;31.4;;;55.3;;
74483;SDS011;62942;52.462;10.846;2023-02-10T05:38:33;31;;;54.7;;
74483;SDS011;62942;52.462;10.846;2023-02-10T05:39:43;30.6;;;51.3;;
74483;SDS011;62942;52.462;10.846;2023-02-10T05:40:43;30.1;;;50.6;;
74483;SDS011;62942;52.462;10.846;2023-02-10T05:41:54;31;;;50;;
74483;SDS011;62942;52.462;10.846;2023-02-10T05:43:03;30.2;;;50.7;;
74483;SDS011;62942;52.462;10.846;2023-02-10T05:44:13;30.8;;;53;;
74483;SDS011;62942;52.462;10.846;2023-02-10T05:45:13;30.4;;;51.8;;
74483;SDS011;62942;52.462;10.846;2023-02-10T05:46:23;30.2;;;51.8;;
74483;SDS011;62942;52.462;10.846;2023-02-10T05:47:33;31;;;54.3;;
74483;SDS011;62942;52.462;10.846;2023-02-10T05:48:43;30;;;51.4;;
74483;SDS011;62942;52.462;10.846;2023-02-10T05:49:53;31;;;53.5;;
74483;SDS011;62942;52.462;10.846;2023-02-10T05:50:53;31.2;;;53.3;;
74483;SDS011;62942;52.462;10.846;2023-02-10T05:52:03;29.9;;;50.6;;
74483;SDS011;62942;52.462;10.846;2023-02-10T05:53:03;30.6;;;54.2;;
74483;SDS011;62942;52.462;10.846;2023-02-10T05:54:03;30.6;;;52;;
74483;SDS011;62942;52.462;10.846;2023-02-10T05:55:13;30.7;;;53.6;;
74483;SDS011;62942;52.462;10.846;2023-02-10T05:56:23;31.2;;;53.9;;
74483;SDS011;62942;52.462;10.846;2023-02-10T05:57:33;30.6;;;52.1;;
74483;SDS011;62942;52.462;10.846;2023-02-10T05:58:43;31.1;;;53.3;;
74483;SDS011;62942;52.462;10.846;2023-02-10T05:59:43;30.9;;;51.6;;
74483;SDS011;62942;52.462;10.846;2023-02-10T06:00:53;31.7;;;53.8;;
74483;SDS011;62942;52.462;10.846;2023-02-10T06:01:53;30.8;;;53.2;;
74483;SDS011;62942;52.462;10.846;2023-02-10T06:03:03;31.1;;;52;;
74483;SDS011;62942;52.462;10.846;2023-02-10T06:04:13;31.2;;;50.2;;
74483;SDS011;62942;52.462;10.846;2023-02-10T06:05:23;32;;;56.5;;
74483;SDS011;62942;52.462;10.846;2023-02-10T06:06:33;30.8;;;54;;
74483;SDS011;62942;52.462;10.846;2023-02-10T06:07:43;31.2;;;52.4;;
74483;SDS011;62942;52.462;10.846;2023-02-10T06:08:43;30.7;;;52.7;;
74483;SDS011;62942;52.462;10.846;2023-02-10T06:09:53;30.3;;;52.2;;
74483;SDS011;62942;52.462;10.846;2023-02-10T06:10:53;31.4;;;53.3;;
74483;SDS011;62942;52.462;10.846;2023-02-10T06:11:53;30.9;;;52.5;;
74483;SDS011;62942;52.462;10.846;2023-02-10T06:13:03;31.7;;;53.7;;
74483;SDS011;62942;52.462;10.846;2023-02-10T06:14:13;30.6;;;50.6;;
74483;SDS011;62942;52.462;10.846;2023-02-10T06:15:13;32.1;;;54.1;;
74483;SDS011;62942;52.462;10.846;2023-02-10T06:16:23;31.3;;;52.2;;
74483;SDS011;62942;52.462;10.846;2023-02-10T06:17:33;30.8;;;52.7;;
74483;SDS011;62942;52.462;10.846;2023-02-10T06:18:33;30.8;;;51.1;;
74483;SDS011;62942;52.462;10.846;2023-02-10T06:19:33;30.6;;;51.4;;
74483;SDS011;62942;52.462;10.846;2023-02-10T06:20:44;30.5;;;50.4;;
74483;SDS011;62942;52.462;10.846;2023-02-10T06:21:53;31.2;;;51.4;;
74483;SDS011;62942;52.462;10.846;2023-02-10T06:22:53;30.6;;;51.8;;
74483;SDS011;62942;52.462;10.846;2023-02-10T06:24:03;30.7;;;51;;
74483;SDS011;62942;52.462;10.846;2023-02-10T06:25:13;30.7;;;50.2;;
74483;SDS011;62942;52.462;10.846;2023-02-10T06:26:23;30.5;;;50.6;;
74483;SDS011;62942;52.462;10.846;2023-02-10T06:27:23;30.3;;;51.3;;
74483;SDS011;62942;52.462;10.846;2023-02-10T06:28:33;30.6;;;52.8;;
74483;SDS011;62942;52.462;10.846;2023-02-10T06:29:33;29.2;;;49;;
74483;SDS011;62942;52.462;10.846;2023-02-10T06:30:43;29.9;;;49.5;;
74483;SDS011;62942;52.462;10.846;2023-02-10T06:31:43;29.6;;;49.5;;
74483;SDS011;62942;52.462;10.846;2023-02-10T06:32:53;30.7;;;53.7;;
74483;SDS011;62942;52.462;10.846;2023-02-10T06:34:03;29.8;;;50.1;;
74483;SDS011;62942;52.462;10.846;2023-02-10T06:35:03;29.7;;;49.9;;
74483;SDS011;62942;52.462;10.846;2023-02-10T06:36:13;29.8;;;48.1;;
74483;SDS011;62942;52.462;10.846;2023-02-10T06:37:13;29.7;;;48.5;;
74483;SDS011;62942;52.462;10.846;2023-02-10T06:38:23;28.9;;;50.4;;
74483;SDS011;62942;52.462;10.846;2023-02-10T06:39:33;30.4;;;50.9;;